sensor_id;sensor_type;location;lat;lon;timestamp;P1;durP1;ratioP1;P2;durP2;ratioP2
6269;SDS011;3168;51.684;6.954;2024-02-04T00:00:32;11.97;;;9.97;;
6269;SDS011;3168;51.684;6.954;2024-02-04T00:02:58;14.90;;;10.80;;
6269;SDS011;3168;51.684;6.954;2024-02-04T00:05:24;13.57;;;9.83;;
6269;SDS011;3168;51.684;6.954;2024-02-04T00:07:51;20.03;;;10.73;;
6269;SDS011;3168;51.684;6.954;2024-02-04T00:10:17;15.90;;;9.93;;
6269;SDS011;3168;51.684;6.954;2024-02-04T00:12:43;18.43;;;11.03;;
6269;SDS011;3168;51.684;6.954;2024-02-04T00:15:10;15.23;;;10.13;;
6269;SDS011;3168;51.684;6.954;2024-02-04T00:17:37;10.10;;;9.10;;
6269;SDS011;3168;51.684;6.954;2024-02-04T00:20:04;14.90;;;8.37;;
6269;SDS011;3168;51.684;6.954;2024-02-04T00:22:32;6.93;;;6.23;;
6269;SDS011;3168;51.684;6.954;2024-02-04T00:24:57;8.90;;;7.90;;
6269;SDS011;3168;51.684;6.954;2024-02-04T00:27:24;7.50;;;6.77;;
6269;SDS011;3168;51.684;6.954;2024-02-04T00:29:50;7.93;;;7.13;;
6269;SDS011;3168;51.684;6.954;2024-02-04T00:32:16;7.37;;;6.90;;
6269;SDS011;3168;51.684;6.954;2024-02-04T00:34:42;7.37;;;6.80;;
6269;SDS011;3168;51.684;6.954;2024-02-04T00:37:08;10.77;;;8.07;;
6269;SDS011;3168;51.684;6.954;2024-02-04T00:39:34;7.47;;;6.87;;
6269;SDS011;3168;51.684;6.954;2024-02-04T00:42:00;11.30;;;8.63;;
6269;SDS011;3168;51.684;6.954;2024-02-04T00:44:27;8.83;;;8.17;;
6269;SDS011;3168;51.684;6.954;2024-02-04T00:46:53;13.77;;;9.20;;
6269;SDS011;3168;51.684;6.954;2024-02-04T00:49:19;9.87;;;7.70;;
6269;SDS011;3168;51.684;6.954;2024-02-04T00:51:45;9.93;;;8.40;;
6269;SDS011;3168;51.684;6.954;2024-02-04T00:54:11;8.77;;;7.90;;
6269;SDS011;3168;51.684;6.954;2024-02-04T00:56:37;8.18;;;7.30;;
6269;SDS011;3168;51.684;6.954;2024-02-04T00:59:03;9.50;;;7.67;;
6269;SDS011;3168;51.684;6.954;2024-02-04T01:01:29;10.13;;;8.10;;
6269;SDS011;3168;51.684;6.954;2024-02-04T01:03:55;6.97;;;6.53;;
6269;SDS011;3168;51.684;6.954;2024-02-04T01:06:22;5.60;;;5.30;;
6269;SDS011;3168;51.684;6.954;2024-02-04T01:08:48;5.23;;;4.80;;
6269;SDS011;3168;51.684;6.954;2024-02-04T01:11:14;5.23;;;4.90;;
6269;SDS011;3168;51.684;6.954;2024-02-04T01:13:40;7.77;;;6.17;;
6269;SDS011;3168;51.684;6.954;2024-02-04T01:16:06;5.90;;;5.13;;
6269;SDS011;3168;51.684;6.954;2024-02-04T01:18:32;4.53;;;4.23;;
6269;SDS011;3168;51.684;6.954;2024-02-04T01:20:58;7.83;;;4.83;;
6269;SDS011;3168;51.684;6.954;2024-02-04T01:23:24;5.03;;;4.63;;
6269;SDS011;3168;51.684;6.954;2024-02-04T01:25:50;6.00;;;5.50;;
6269;SDS011;3168;51.684;6.954;2024-02-04T01:28:16;5.97;;;5.47;;
6269;SDS011;3168;51.684;6.954;2024-02-04T01:30:43;4.70;;;4.37;;
6269;SDS011;3168;51.684;6.954;2024-02-04T01:33:09;6.67;;;6.07;;
6269;SDS011;3168;51.684;6.954;2024-02-04T01:35:35;5.03;;;4.63;;
6269;SDS011;3168;51.684;6.954;2024-02-04T01:38:01;5.80;;;5.30;;
6269;SDS011;3168;51.684;6.954;2024-02-04T01:40:27;5.87;;;5.43;;
6269;SDS011;3168;51.684;6.954;2024-02-04T01:42:53;4.33;;;4.00;;
6269;SDS011;3168;51.684;6.954;2024-02-04T01:45:20;4.67;;;4.33;;
6269;SDS011;3168;51.684;6.954;2024-02-04T01:47:46;6.43;;;5.00;;
6269;SDS011;3168;51.684;6.954;2024-02-04T01:50:12;5.43;;;4.93;;
6269;SDS011;3168;51.684;6.954;2024-02-04T01:52:38;4.93;;;4.63;;
6269;SDS011;3168;51.684;6.954;2024-02-04T01:55:05;7.30;;;6.33;;
6269;SDS011;3168;51.684;6.954;2024-02-04T01:57:31;5.40;;;4.97;;
6269;SDS011;3168;51.684;6.954;2024-02-04T01:59:57;5.33;;;5.03;;
6269;SDS011;3168;51.684;6.954;2024-02-04T02:02:24;10.90;;;5.87;;
6269;SDS011;3168;51.684;6.954;2024-02-04T02:04:49;5.57;;;5.17;;
6269;SDS011;3168;51.684;6.954;2024-02-04T02:07:15;4.60;;;4.37;;
6269;SDS011;3168;51.684;6.954;2024-02-04T02:09:42;5.67;;;5.27;;
6269;SDS011;3168;51.684;6.954;2024-02-04T02:12:11;10.83;;;4.70;;
6269;SDS011;3168;51.684;6.954;2024-02-04T02:14:37;5.27;;;4.80;;
6269;SDS011;3168;51.684;6.954;2024-02-04T02:17:05;5.50;;;5.20;;
6269;SDS011;3168;51.684;6.954;2024-02-04T02:22:22;5.70;;;5.40;;
6269;SDS011;3168;51.684;6.954;2024-02-04T02:24:47;6.17;;;5.63;;
6269;SDS011;3168;51.684;6.954;2024-02-04T02:27:13;8.00;;;5.20;;
6269;SDS011;3168;51.684;6.954;2024-02-04T02:29:40;7.80;;;5.47;;
6269;SDS011;3168;51.684;6.954;2024-02-04T02:32:06;6.60;;;6.00;;
6269;SDS011;3168;51.684;6.954;2024-02-04T02:34:32;6.87;;;6.17;;
6269;SDS011;3168;51.684;6.954;2024-02-04T02:37:00;6.80;;;6.20;;
6269;SDS011;3168;51.684;6.954;2024-02-04T02:39:27;7.43;;;6.50;;
6269;SDS011;3168;51.684;6.954;2024-02-04T02:41:52;8.10;;;6.77;;
6269;SDS011;3168;51.684;6.954;2024-02-04T02:44:17;7.40;;;6.70;;
6269;SDS011;3168;51.684;6.954;2024-02-04T02:46:44;6.03;;;5.47;;
6269;SDS011;3168;51.684;6.954;2024-02-04T02:49:09;10.97;;;6.90;;
6269;SDS011;3168;51.684;6.954;2024-02-04T02:51:35;7.83;;;6.93;;
6269;SDS011;3168;51.684;6.954;2024-02-04T02:54:01;9.43;;;8.03;;
6269;SDS011;3168;51.684;6.954;2024-02-04T02:56:28;8.03;;;7.07;;
6269;SDS011;3168;51.684;6.954;2024-02-04T02:58:54;8.40;;;7.40;;
6269;SDS011;3168;51.684;6.954;2024-02-04T03:01:20;30.37;;;11.13;;
6269;SDS011;3168;51.684;6.954;2024-02-04T03:03:46;14.60;;;8.83;;
6269;SDS011;3168;51.684;6.954;2024-02-04T03:06:12;11.17;;;8.17;;
6269;SDS011;3168;51.684;6.954;2024-02-04T03:08:38;13.83;;;8.20;;
6269;SDS011;3168;51.684;6.954;2024-02-04T03:11:04;19.73;;;10.57;;
6269;SDS011;3168;51.684;6.954;2024-02-04T03:13:31;11.33;;;8.73;;
6269;SDS011;3168;51.684;6.954;2024-02-04T03:15:57;13.93;;;9.00;;
6269;SDS011;3168;51.684;6.954;2024-02-04T03:18:24;14.23;;;8.67;;
6269;SDS011;3168;51.684;6.954;2024-02-04T03:20:50;15.93;;;9.10;;
6269;SDS011;3168;51.684;6.954;2024-02-04T03:23:16;20.63;;;8.13;;
6269;SDS011;3168;51.684;6.954;2024-02-04T03:25:42;18.00;;;9.83;;
6269;SDS011;3168;51.684;6.954;2024-02-04T03:28:08;13.73;;;9.93;;
6269;SDS011;3168;51.684;6.954;2024-02-04T03:30:35;20.03;;;9.60;;
6269;SDS011;3168;51.684;6.954;2024-02-04T03:33:01;13.23;;;8.60;;
6269;SDS011;3168;51.684;6.954;2024-02-04T03:35:27;11.23;;;8.13;;
6269;SDS011;3168;51.684;6.954;2024-02-04T03:37:53;13.80;;;9.60;;
6269;SDS011;3168;51.684;6.954;2024-02-04T03:40:19;13.07;;;9.20;;
6269;SDS011;3168;51.684;6.954;2024-02-04T03:42:45;9.57;;;8.57;;
6269;SDS011;3168;51.684;6.954;2024-02-04T03:45:11;15.63;;;11.20;;
6269;SDS011;3168;51.684;6.954;2024-02-04T03:47:37;28.87;;;10.80;;
6269;SDS011;3168;51.684;6.954;2024-02-04T03:50:03;17.13;;;10.83;;
6269;SDS011;3168;51.684;6.954;2024-02-04T03:52:30;21.67;;;12.30;;
6269;SDS011;3168;51.684;6.954;2024-02-04T03:54:56;18.20;;;10.37;;
6269;SDS011;3168;51.684;6.954;2024-02-04T03:57:22;17.23;;;8.98;;
6269;SDS011;3168;51.684;6.954;2024-02-04T03:59:48;14.90;;;10.67;;
6269;SDS011;3168;51.684;6.954;2024-02-04T04:02:14;16.17;;;9.73;;
6269;SDS011;3168;51.684;6.954;2024-02-04T04:04:40;24.17;;;11.70;;
6269;SDS011;3168;51.684;6.954;2024-02-04T04:07:07;38.40;;;12.17;;
6269;SDS011;3168;51.684;6.954;2024-02-04T04:09:33;15.90;;;11.53;;
6269;SDS011;3168;51.684;6.954;2024-02-04T04:12:00;34.87;;;12.33;;
6269;SDS011;3168;51.684;6.954;2024-02-04T04:14:26;17.47;;;12.00;;
6269;SDS011;3168;51.684;6.954;2024-02-04T04:16:52;30.00;;;13.20;;
6269;SDS011;3168;51.684;6.954;2024-02-04T04:19:18;15.23;;;11.40;;
6269;SDS011;3168;51.684;6.954;2024-02-04T04:21:44;20.03;;;11.93;;
6269;SDS011;3168;51.684;6.954;2024-02-04T04:24:10;27.20;;;12.53;;
6269;SDS011;3168;51.684;6.954;2024-02-04T04:26:36;23.43;;;14.93;;
6269;SDS011;3168;51.684;6.954;2024-02-04T04:29:03;23.43;;;12.10;;
6269;SDS011;3168;51.684;6.954;2024-02-04T04:31:29;46.80;;;13.60;;
6269;SDS011;3168;51.684;6.954;2024-02-04T04:33:55;15.87;;;10.03;;
6269;SDS011;3168;51.684;6.954;2024-02-04T04:36:21;18.47;;;12.67;;
6269;SDS011;3168;51.684;6.954;2024-02-04T04:38:47;20.30;;;10.87;;
6269;SDS011;3168;51.684;6.954;2024-02-04T04:41:14;15.47;;;10.80;;
6269;SDS011;3168;51.684;6.954;2024-02-04T04:43:40;23.13;;;12.80;;
6269;SDS011;3168;51.684;6.954;2024-02-04T04:46:06;18.93;;;10.97;;
6269;SDS011;3168;51.684;6.954;2024-02-04T04:48:32;16.83;;;11.20;;
6269;SDS011;3168;51.684;6.954;2024-02-04T04:50:58;21.37;;;11.07;;
6269;SDS011;3168;51.684;6.954;2024-02-04T04:53:24;21.07;;;11.80;;
6269;SDS011;3168;51.684;6.954;2024-02-04T04:55:50;16.40;;;9.87;;
6269;SDS011;3168;51.684;6.954;2024-02-04T04:58:16;15.68;;;10.95;;
6269;SDS011;3168;51.684;6.954;2024-02-04T05:00:42;12.07;;;10.00;;
6269;SDS011;3168;51.684;6.954;2024-02-04T05:03:08;16.33;;;10.63;;
6269;SDS011;3168;51.684;6.954;2024-02-04T05:05:34;23.83;;;12.57;;
6269;SDS011;3168;51.684;6.954;2024-02-04T05:08:01;14.80;;;11.30;;
6269;SDS011;3168;51.684;6.954;2024-02-04T05:10:27;22.43;;;12.13;;
6269;SDS011;3168;51.684;6.954;2024-02-04T05:12:53;19.67;;;13.20;;
6269;SDS011;3168;51.684;6.954;2024-02-04T05:15:19;16.37;;;11.30;;
6269;SDS011;3168;51.684;6.954;2024-02-04T05:17:45;23.83;;;11.93;;
6269;SDS011;3168;51.684;6.954;2024-02-04T05:20:11;26.70;;;14.03;;
6269;SDS011;3168;51.684;6.954;2024-02-04T05:22:37;21.53;;;10.50;;
6269;SDS011;3168;51.684;6.954;2024-02-04T05:25:04;29.53;;;13.40;;
6269;SDS011;3168;51.684;6.954;2024-02-04T05:27:31;21.37;;;14.13;;
6269;SDS011;3168;51.684;6.954;2024-02-04T05:29:57;22.47;;;12.20;;
6269;SDS011;3168;51.684;6.954;2024-02-04T05:32:23;18.97;;;11.80;;
6269;SDS011;3168;51.684;6.954;2024-02-04T05:34:49;34.73;;;14.27;;
6269;SDS011;3168;51.684;6.954;2024-02-04T05:37:15;19.97;;;13.70;;
6269;SDS011;3168;51.684;6.954;2024-02-04T05:39:41;31.33;;;12.60;;
6269;SDS011;3168;51.684;6.954;2024-02-04T05:42:08;25.63;;;12.80;;
6269;SDS011;3168;51.684;6.954;2024-02-04T05:44:34;28.33;;;12.87;;
6269;SDS011;3168;51.684;6.954;2024-02-04T05:47:00;23.20;;;11.93;;
6269;SDS011;3168;51.684;6.954;2024-02-04T05:49:26;16.40;;;10.93;;
6269;SDS011;3168;51.684;6.954;2024-02-04T05:51:52;21.33;;;13.57;;
6269;SDS011;3168;51.684;6.954;2024-02-04T05:54:18;22.50;;;12.50;;
6269;SDS011;3168;51.684;6.954;2024-02-04T05:56:44;23.83;;;13.47;;
6269;SDS011;3168;51.684;6.954;2024-02-04T05:59:10;23.23;;;13.63;;
6269;SDS011;3168;51.684;6.954;2024-02-04T06:01:36;23.90;;;12.67;;
6269;SDS011;3168;51.684;6.954;2024-02-04T06:04:02;15.53;;;11.43;;
6269;SDS011;3168;51.684;6.954;2024-02-04T06:06:28;16.20;;;11.83;;
6269;SDS011;3168;51.684;6.954;2024-02-04T06:08:55;18.73;;;10.50;;
6269;SDS011;3168;51.684;6.954;2024-02-04T06:11:21;15.27;;;10.87;;
6269;SDS011;3168;51.684;6.954;2024-02-04T06:13:47;12.90;;;9.27;;
6269;SDS011;3168;51.684;6.954;2024-02-04T06:16:13;20.70;;;11.47;;
6269;SDS011;3168;51.684;6.954;2024-02-04T06:18:39;18.00;;;10.77;;
6269;SDS011;3168;51.684;6.954;2024-02-04T06:21:05;23.03;;;11.60;;
6269;SDS011;3168;51.684;6.954;2024-02-04T06:23:31;16.17;;;9.83;;
6269;SDS011;3168;51.684;6.954;2024-02-04T06:25:57;15.93;;;10.47;;
6269;SDS011;3168;51.684;6.954;2024-02-04T06:28:23;19.37;;;8.50;;
6269;SDS011;3168;51.684;6.954;2024-02-04T06:30:49;13.17;;;9.57;;
6269;SDS011;3168;51.684;6.954;2024-02-04T06:33:15;10.83;;;9.10;;
6269;SDS011;3168;51.684;6.954;2024-02-04T06:35:41;16.53;;;11.17;;
6269;SDS011;3168;51.684;6.954;2024-02-04T06:38:07;12.80;;;8.60;;
6269;SDS011;3168;51.684;6.954;2024-02-04T06:40:33;18.73;;;8.83;;
6269;SDS011;3168;51.684;6.954;2024-02-04T06:42:59;15.30;;;8.17;;
6269;SDS011;3168;51.684;6.954;2024-02-04T06:45:25;16.27;;;9.67;;
6269;SDS011;3168;51.684;6.954;2024-02-04T06:47:51;17.30;;;10.10;;
6269;SDS011;3168;51.684;6.954;2024-02-04T06:50:17;22.13;;;10.20;;
6269;SDS011;3168;51.684;6.954;2024-02-04T06:52:43;16.63;;;8.50;;
6269;SDS011;3168;51.684;6.954;2024-02-04T06:55:09;12.87;;;8.17;;
6269;SDS011;3168;51.684;6.954;2024-02-04T06:57:36;7.40;;;6.80;;
6269;SDS011;3168;51.684;6.954;2024-02-04T07:00:02;10.40;;;9.20;;
6269;SDS011;3168;51.684;6.954;2024-02-04T07:02:27;11.13;;;8.60;;
6269;SDS011;3168;51.684;6.954;2024-02-04T07:04:53;21.80;;;11.57;;
6269;SDS011;3168;51.684;6.954;2024-02-04T07:07:19;10.10;;;7.60;;
6269;SDS011;3168;51.684;6.954;2024-02-04T07:09:46;9.83;;;7.97;;
6269;SDS011;3168;51.684;6.954;2024-02-04T07:12:11;8.57;;;7.23;;
6269;SDS011;3168;51.684;6.954;2024-02-04T07:14:37;10.70;;;7.90;;
6269;SDS011;3168;51.684;6.954;2024-02-04T07:17:04;9.60;;;8.40;;
6269;SDS011;3168;51.684;6.954;2024-02-04T07:19:30;17.93;;;8.10;;
6269;SDS011;3168;51.684;6.954;2024-02-04T07:21:56;7.40;;;6.63;;
6269;SDS011;3168;51.684;6.954;2024-02-04T07:24:22;10.73;;;7.47;;
6269;SDS011;3168;51.684;6.954;2024-02-04T07:26:48;14.60;;;6.63;;
6269;SDS011;3168;51.684;6.954;2024-02-04T07:29:14;11.47;;;7.20;;
6269;SDS011;3168;51.684;6.954;2024-02-04T07:31:40;7.17;;;6.50;;
6269;SDS011;3168;51.684;6.954;2024-02-04T07:34:06;8.27;;;6.90;;
6269;SDS011;3168;51.684;6.954;2024-02-04T07:36:32;16.80;;;7.47;;
6269;SDS011;3168;51.684;6.954;2024-02-04T07:38:58;7.60;;;5.97;;
6269;SDS011;3168;51.684;6.954;2024-02-04T07:41:24;7.70;;;6.97;;
6269;SDS011;3168;51.684;6.954;2024-02-04T07:43:50;7.13;;;6.30;;
6269;SDS011;3168;51.684;6.954;2024-02-04T07:46:16;9.17;;;7.70;;
6269;SDS011;3168;51.684;6.954;2024-02-04T07:48:42;6.53;;;5.50;;
6269;SDS011;3168;51.684;6.954;2024-02-04T07:51:08;8.33;;;6.30;;
6269;SDS011;3168;51.684;6.954;2024-02-04T07:53:35;9.50;;;7.27;;
6269;SDS011;3168;51.684;6.954;2024-02-04T07:56:01;8.20;;;6.70;;
6269;SDS011;3168;51.684;6.954;2024-02-04T07:58:27;7.07;;;6.47;;
6269;SDS011;3168;51.684;6.954;2024-02-04T08:00:54;10.60;;;6.63;;
6269;SDS011;3168;51.684;6.954;2024-02-04T08:03:20;6.63;;;6.13;;
6269;SDS011;3168;51.684;6.954;2024-02-04T08:05:46;8.27;;;7.40;;
6269;SDS011;3168;51.684;6.954;2024-02-04T08:08:13;5.80;;;5.20;;
6269;SDS011;3168;51.684;6.954;2024-02-04T08:10:39;8.70;;;5.53;;
6269;SDS011;3168;51.684;6.954;2024-02-04T08:13:05;10.23;;;7.27;;
6269;SDS011;3168;51.684;6.954;2024-02-04T08:15:31;10.73;;;6.50;;
6269;SDS011;3168;51.684;6.954;2024-02-04T08:17:57;5.57;;;5.07;;
6269;SDS011;3168;51.684;6.954;2024-02-04T08:20:24;6.03;;;5.63;;
6269;SDS011;3168;51.684;6.954;2024-02-04T08:22:51;7.23;;;6.53;;
6269;SDS011;3168;51.684;6.954;2024-02-04T08:25:16;6.33;;;5.73;;
6269;SDS011;3168;51.684;6.954;2024-02-04T08:27:43;6.47;;;5.40;;
6269;SDS011;3168;51.684;6.954;2024-02-04T08:30:09;8.07;;;6.40;;
6269;SDS011;3168;51.684;6.954;2024-02-04T08:32:36;5.80;;;5.40;;
6269;SDS011;3168;51.684;6.954;2024-02-04T08:35:02;7.60;;;4.97;;
6269;SDS011;3168;51.684;6.954;2024-02-04T08:37:30;5.67;;;5.17;;
6269;SDS011;3168;51.684;6.954;2024-02-04T08:39:56;7.43;;;6.70;;
6269;SDS011;3168;51.684;6.954;2024-02-04T08:42:22;5.80;;;5.30;;
6269;SDS011;3168;51.684;6.954;2024-02-04T08:44:49;8.20;;;5.83;;
6269;SDS011;3168;51.684;6.954;2024-02-04T08:47:15;8.10;;;5.50;;
6269;SDS011;3168;51.684;6.954;2024-02-04T08:49:41;4.60;;;4.37;;
6269;SDS011;3168;51.684;6.954;2024-02-04T08:52:07;5.80;;;5.10;;
6269;SDS011;3168;51.684;6.954;2024-02-04T08:54:34;10.07;;;4.90;;
6269;SDS011;3168;51.684;6.954;2024-02-04T08:57:01;5.17;;;4.60;;
6269;SDS011;3168;51.684;6.954;2024-02-04T08:59:29;5.27;;;4.90;;
6269;SDS011;3168;51.684;6.954;2024-02-04T09:01:56;4.47;;;4.17;;
6269;SDS011;3168;51.684;6.954;2024-02-04T09:04:22;5.93;;;5.30;;
6269;SDS011;3168;51.684;6.954;2024-02-04T09:06:48;11.30;;;4.70;;
6269;SDS011;3168;51.684;6.954;2024-02-04T09:09:14;5.40;;;4.90;;
6269;SDS011;3168;51.684;6.954;2024-02-04T09:11:40;4.30;;;4.00;;
6269;SDS011;3168;51.684;6.954;2024-02-04T09:14:06;3.90;;;3.70;;
6269;SDS011;3168;51.684;6.954;2024-02-04T09:16:33;3.27;;;3.07;;
6269;SDS011;3168;51.684;6.954;2024-02-04T09:18:59;4.77;;;3.87;;
6269;SDS011;3168;51.684;6.954;2024-02-04T09:21:25;6.93;;;3.63;;
6269;SDS011;3168;51.684;6.954;2024-02-04T09:23:51;4.03;;;3.83;;
6269;SDS011;3168;51.684;6.954;2024-02-04T09:26:18;2.90;;;2.80;;
6269;SDS011;3168;51.684;6.954;2024-02-04T09:28:44;7.60;;;3.70;;
6269;SDS011;3168;51.684;6.954;2024-02-04T09:31:10;6.70;;;3.00;;
6269;SDS011;3168;51.684;6.954;2024-02-04T09:33:36;3.17;;;3.07;;
6269;SDS011;3168;51.684;6.954;2024-02-04T09:36:02;3.27;;;3.07;;
6269;SDS011;3168;51.684;6.954;2024-02-04T09:38:28;4.17;;;3.50;;
6269;SDS011;3168;51.684;6.954;2024-02-04T09:40:54;2.60;;;2.50;;
6269;SDS011;3168;51.684;6.954;2024-02-04T09:43:31;5.77;;;3.10;;
6269;SDS011;3168;51.684;6.954;2024-02-04T09:45:55;2.60;;;2.50;;
6269;SDS011;3168;51.684;6.954;2024-02-04T09:48:21;2.20;;;2.10;;
6269;SDS011;3168;51.684;6.954;2024-02-04T09:50:47;7.63;;;2.47;;
6269;SDS011;3168;51.684;6.954;2024-02-04T09:53:14;2.23;;;2.20;;
6269;SDS011;3168;51.684;6.954;2024-02-04T09:55:40;2.07;;;1.97;;
6269;SDS011;3168;51.684;6.954;2024-02-04T09:58:08;4.03;;;2.80;;
6269;SDS011;3168;51.684;6.954;2024-02-04T10:00:34;2.67;;;2.50;;
6269;SDS011;3168;51.684;6.954;2024-02-04T10:03:00;2.63;;;2.30;;
6269;SDS011;3168;51.684;6.954;2024-02-04T10:05:26;2.70;;;2.50;;
6269;SDS011;3168;51.684;6.954;2024-02-04T10:07:52;2.57;;;2.47;;
6269;SDS011;3168;51.684;6.954;2024-02-04T10:10:18;2.80;;;2.60;;
6269;SDS011;3168;51.684;6.954;2024-02-04T10:12:44;1.63;;;1.63;;
6269;SDS011;3168;51.684;6.954;2024-02-04T10:15:17;1.40;;;1.40;;
6269;SDS011;3168;51.684;6.954;2024-02-04T10:17:45;2.07;;;1.87;;
6269;SDS011;3168;51.684;6.954;2024-02-04T10:20:12;1.73;;;1.73;;
6269;SDS011;3168;51.684;6.954;2024-02-04T10:22:38;8.20;;;2.27;;
6269;SDS011;3168;51.684;6.954;2024-02-04T10:25:05;3.53;;;2.57;;
6269;SDS011;3168;51.684;6.954;2024-02-04T10:27:34;2.43;;;2.10;;
6269;SDS011;3168;51.684;6.954;2024-02-04T10:30:00;2.60;;;2.50;;
6269;SDS011;3168;51.684;6.954;2024-02-04T10:32:27;2.53;;;2.43;;
6269;SDS011;3168;51.684;6.954;2024-02-04T10:34:53;2.70;;;2.40;;
6269;SDS011;3168;51.684;6.954;2024-02-04T10:37:19;3.70;;;3.43;;
6269;SDS011;3168;51.684;6.954;2024-02-04T10:39:45;8.50;;;3.73;;
6269;SDS011;3168;51.684;6.954;2024-02-04T10:42:11;3.70;;;3.53;;
6269;SDS011;3168;51.684;6.954;2024-02-04T10:44:38;4.83;;;4.47;;
6269;SDS011;3168;51.684;6.954;2024-02-04T10:47:05;7.37;;;4.70;;
6269;SDS011;3168;51.684;6.954;2024-02-04T10:49:31;9.07;;;6.27;;
6269;SDS011;3168;51.684;6.954;2024-02-04T10:51:57;5.83;;;5.17;;
6269;SDS011;3168;51.684;6.954;2024-02-04T10:54:23;5.07;;;4.67;;
6269;SDS011;3168;51.684;6.954;2024-02-04T10:56:51;5.10;;;4.70;;
6269;SDS011;3168;51.684;6.954;2024-02-04T10:59:15;4.90;;;4.68;;
6269;SDS011;3168;51.684;6.954;2024-02-04T11:01:44;7.27;;;5.70;;
6269;SDS011;3168;51.684;6.954;2024-02-04T11:04:10;7.00;;;4.67;;
6269;SDS011;3168;51.684;6.954;2024-02-04T11:06:37;8.47;;;4.77;;
6269;SDS011;3168;51.684;6.954;2024-02-04T11:09:03;4.93;;;4.50;;
6269;SDS011;3168;51.684;6.954;2024-02-04T11:11:29;5.10;;;4.80;;
6269;SDS011;3168;51.684;6.954;2024-02-04T11:13:56;4.93;;;4.60;;
6269;SDS011;3168;51.684;6.954;2024-02-04T11:16:31;4.40;;;4.17;;
6269;SDS011;3168;51.684;6.954;2024-02-04T11:18:58;3.50;;;3.30;;
6269;SDS011;3168;51.684;6.954;2024-02-04T11:21:33;4.57;;;4.20;;
6269;SDS011;3168;51.684;6.954;2024-02-04T11:24:04;4.90;;;4.60;;
6269;SDS011;3168;51.684;6.954;2024-02-04T11:26:27;3.53;;;3.23;;
6269;SDS011;3168;51.684;6.954;2024-02-04T11:28:53;6.57;;;4.70;;
6269;SDS011;3168;51.684;6.954;2024-02-04T11:31:19;5.00;;;4.60;;
6269;SDS011;3168;51.684;6.954;2024-02-04T11:33:45;5.20;;;4.30;;
6269;SDS011;3168;51.684;6.954;2024-02-04T11:36:13;1.73;;;1.73;;
6269;SDS011;3168;51.684;6.954;2024-02-04T11:38:38;3.60;;;3.40;;
6269;SDS011;3168;51.684;6.954;2024-02-04T11:41:04;4.03;;;3.83;;
6269;SDS011;3168;51.684;6.954;2024-02-04T11:43:32;2.27;;;2.17;;
6269;SDS011;3168;51.684;6.954;2024-02-04T11:45:58;1.83;;;1.73;;
6269;SDS011;3168;51.684;6.954;2024-02-04T11:48:28;1.70;;;1.63;;
6269;SDS011;3168;51.684;6.954;2024-02-04T11:50:52;1.53;;;1.43;;
6269;SDS011;3168;51.684;6.954;2024-02-04T11:53:18;1.87;;;1.50;;
6269;SDS011;3168;51.684;6.954;2024-02-04T11:55:44;1.10;;;1.10;;
6269;SDS011;3168;51.684;6.954;2024-02-04T11:58:10;1.10;;;1.10;;
6269;SDS011;3168;51.684;6.954;2024-02-04T12:00:36;1.10;;;1.10;;
6269;SDS011;3168;51.684;6.954;2024-02-04T12:03:02;1.20;;;1.10;;
6269;SDS011;3168;51.684;6.954;2024-02-04T12:05:31;2.97;;;2.27;;
6269;SDS011;3168;51.684;6.954;2024-02-04T12:07:57;4.43;;;1.83;;
6269;SDS011;3168;51.684;6.954;2024-02-04T12:10:23;0.80;;;0.80;;
6269;SDS011;3168;51.684;6.954;2024-02-04T12:12:49;1.60;;;1.60;;
6269;SDS011;3168;51.684;6.954;2024-02-04T12:15:15;1.23;;;1.23;;
6269;SDS011;3168;51.684;6.954;2024-02-04T12:17:49;1.23;;;1.23;;
6269;SDS011;3168;51.684;6.954;2024-02-04T12:20:17;1.27;;;1.27;;
6269;SDS011;3168;51.684;6.954;2024-02-04T12:22:44;0.80;;;0.80;;
6269;SDS011;3168;51.684;6.954;2024-02-04T12:25:11;3.67;;;1.33;;
6269;SDS011;3168;51.684;6.954;2024-02-04T12:27:41;0.90;;;0.90;;
6269;SDS011;3168;51.684;6.954;2024-02-04T12:30:07;0.50;;;0.50;;
6269;SDS011;3168;51.684;6.954;2024-02-04T12:32:35;1.00;;;1.00;;
6269;SDS011;3168;51.684;6.954;2024-02-04T12:35:02;0.90;;;0.90;;
6269;SDS011;3168;51.684;6.954;2024-02-04T12:37:29;1.43;;;0.87;;
6269;SDS011;3168;51.684;6.954;2024-02-04T12:39:56;2.43;;;2.33;;
6269;SDS011;3168;51.684;6.954;2024-02-04T12:42:24;1.50;;;1.50;;
6269;SDS011;3168;51.684;6.954;2024-02-04T12:44:51;1.27;;;1.27;;
6269;SDS011;3168;51.684;6.954;2024-02-04T12:47:18;1.60;;;1.60;;
6269;SDS011;3168;51.684;6.954;2024-02-04T12:49:45;1.40;;;1.40;;
6269;SDS011;3168;51.684;6.954;2024-02-04T12:52:11;1.40;;;1.30;;
6269;SDS011;3168;51.684;6.954;2024-02-04T12:54:40;2.30;;;2.20;;
6269;SDS011;3168;51.684;6.954;2024-02-04T12:57:06;1.10;;;1.07;;
6269;SDS011;3168;51.684;6.954;2024-02-04T12:59:33;1.37;;;1.37;;
6269;SDS011;3168;51.684;6.954;2024-02-04T13:02:00;2.27;;;2.07;;
6269;SDS011;3168;51.684;6.954;2024-02-04T13:04:26;1.93;;;1.90;;
6269;SDS011;3168;51.684;6.954;2024-02-04T13:06:52;2.47;;;2.37;;
6269;SDS011;3168;51.684;6.954;2024-02-04T13:09:18;2.83;;;2.63;;
6269;SDS011;3168;51.684;6.954;2024-02-04T13:11:44;2.73;;;2.63;;
6269;SDS011;3168;51.684;6.954;2024-02-04T13:14:11;2.60;;;2.50;;
6269;SDS011;3168;51.684;6.954;2024-02-04T13:16:37;3.87;;;3.00;;
6269;SDS011;3168;51.684;6.954;2024-02-04T13:19:04;2.63;;;2.53;;
6269;SDS011;3168;51.684;6.954;2024-02-04T13:21:30;3.17;;;2.97;;
6269;SDS011;3168;51.684;6.954;2024-02-04T13:23:56;2.93;;;2.83;;
6269;SDS011;3168;51.684;6.954;2024-02-04T13:26:22;2.37;;;2.27;;
6269;SDS011;3168;51.684;6.954;2024-02-04T13:28:48;2.47;;;2.27;;
6269;SDS011;3168;51.684;6.954;2024-02-04T13:31:14;1.77;;;1.67;;
6269;SDS011;3168;51.684;6.954;2024-02-04T13:33:41;2.13;;;2.10;;
6269;SDS011;3168;51.684;6.954;2024-02-04T13:36:08;2.23;;;2.13;;
6269;SDS011;3168;51.684;6.954;2024-02-04T13:38:34;1.90;;;1.80;;
6269;SDS011;3168;51.684;6.954;2024-02-04T13:41:01;1.87;;;1.77;;
6269;SDS011;3168;51.684;6.954;2024-02-04T13:43:26;2.27;;;2.17;;
6269;SDS011;3168;51.684;6.954;2024-02-04T13:45:53;3.73;;;2.67;;
6269;SDS011;3168;51.684;6.954;2024-02-04T13:48:19;2.30;;;2.20;;
6269;SDS011;3168;51.684;6.954;2024-02-04T13:50:45;1.90;;;1.90;;
6269;SDS011;3168;51.684;6.954;2024-02-04T13:53:11;3.83;;;2.47;;
6269;SDS011;3168;51.684;6.954;2024-02-04T13:55:37;2.43;;;2.33;;
6269;SDS011;3168;51.684;6.954;2024-02-04T13:58:04;2.00;;;1.87;;
6269;SDS011;3168;51.684;6.954;2024-02-04T14:00:30;2.92;;;1.80;;
6269;SDS011;3168;51.684;6.954;2024-02-04T14:02:56;2.50;;;2.40;;
6269;SDS011;3168;51.684;6.954;2024-02-04T14:05:22;1.40;;;1.40;;
6269;SDS011;3168;51.684;6.954;2024-02-04T14:07:49;2.07;;;1.97;;
6269;SDS011;3168;51.684;6.954;2024-02-04T14:10:15;2.27;;;2.20;;
6269;SDS011;3168;51.684;6.954;2024-02-04T14:12:41;2.00;;;1.90;;
6269;SDS011;3168;51.684;6.954;2024-02-04T14:15:08;4.03;;;3.10;;
6269;SDS011;3168;51.684;6.954;2024-02-04T14:17:34;2.07;;;1.97;;
6269;SDS011;3168;51.684;6.954;2024-02-04T14:20:00;2.67;;;2.47;;
6269;SDS011;3168;51.684;6.954;2024-02-04T14:22:26;2.83;;;2.70;;
6269;SDS011;3168;51.684;6.954;2024-02-04T14:24:52;2.20;;;2.10;;
6269;SDS011;3168;51.684;6.954;2024-02-04T14:27:18;2.50;;;2.40;;
6269;SDS011;3168;51.684;6.954;2024-02-04T14:29:44;1.90;;;1.90;;
6269;SDS011;3168;51.684;6.954;2024-02-04T14:32:10;2.50;;;2.40;;
6269;SDS011;3168;51.684;6.954;2024-02-04T14:34:36;1.43;;;1.43;;
6269;SDS011;3168;51.684;6.954;2024-02-04T14:37:02;2.20;;;2.10;;
6269;SDS011;3168;51.684;6.954;2024-02-04T14:39:28;1.87;;;1.57;;
6269;SDS011;3168;51.684;6.954;2024-02-04T14:41:54;2.27;;;2.17;;
6269;SDS011;3168;51.684;6.954;2024-02-04T14:44:20;2.07;;;1.97;;
6269;SDS011;3168;51.684;6.954;2024-02-04T14:46:46;3.10;;;2.90;;
6269;SDS011;3168;51.684;6.954;2024-02-04T14:49:11;1.97;;;1.97;;
6269;SDS011;3168;51.684;6.954;2024-02-04T14:51:38;2.53;;;2.43;;
6269;SDS011;3168;51.684;6.954;2024-02-04T14:54:03;3.90;;;2.10;;
6269;SDS011;3168;51.684;6.954;2024-02-04T14:56:29;4.53;;;2.70;;
6269;SDS011;3168;51.684;6.954;2024-02-04T14:58:55;2.30;;;2.20;;
6269;SDS011;3168;51.684;6.954;2024-02-04T15:01:21;1.98;;;1.95;;
6269;SDS011;3168;51.684;6.954;2024-02-04T15:03:47;2.33;;;2.23;;